Time;durP1;ratioP1;P1;durP2;ratioP2;P2;SDS_P1;SDS_P2;PMS_P1;PMS_P2;Temp;Humidity;BMP_temperature;BMP_pressure;BME280_temperature;BME280_humidity;BME280_pressure;Samples;Min_cycle;Max_cycle;Signal;HPM_P1;HPM_P2
2023/04/20 00:00:21;;;;;;;18.13;11.68;;;;;;;16.79;56.98;96187.38;5037405;28;20017;-30
2023/04/20 00:02:47;;;;;;;14.88;10.27;;;;;;;16.90;56.32;96184.81;5048329;28;20020;-29
2023/04/20 00:05:12;;;;;;;14.35;9.65;;;;;;;16.71;56.87;96186.22;5043972;28;20564;-29
2023/04/20 00:07:40;;;;;;;15.50;9.98;;;;;;;16.80;56.79;96186.91;5037031;28;20100;-29
2023/04/20 00:10:06;;;;;;;14.85;9.98;;;;;;;16.74;56.72;96180.56;5036762;28;20462;-29
2023/04/20 00:12:32;;;;;;;14.63;10.43;;;;;;;16.80;56.97;96175.19;5037329;28;20086;-29
2023/04/20 00:14:57;;;;;;;16.95;10.40;;;;;;;16.79;56.61;96168.94;5036671;28;20025;-29
2023/04/20 00:17:23;;;;;;;13.95;9.82;;;;;;;16.71;56.66;96176.03;5043839;28;20025;-29
2023/04/20 00:19:48;;;;;;;15.80;10.20;;;;;;;16.82;56.51;96159.00;5039892;28;20016;-29
2023/04/20 00:22:14;;;;;;;13.85;9.38;;;;;;;16.76;56.58;96166.41;5040325;28;20017;-29
2023/04/20 00:24:39;;;;;;;15.30;10.10;;;;;;;16.66;56.73;96160.28;5036398;28;20028;-29
2023/04/20 00:27:05;;;;;;;15.68;9.65;;;;;;;16.63;56.69;96153.00;5036567;28;20082;-29
2023/04/20 00:29:31;;;;;;;14.80;8.98;;;;;;;16.66;56.67;96152.06;5036042;28;20021;-31
2023/04/20 00:31:56;;;;;;;14.88;9.07;;;;;;;16.88;55.77;96157.88;5043421;28;20026;-29
2023/04/20 00:34:22;;;;;;;13.45;8.82;;;;;;;16.82;55.71;96140.59;5043286;28;20385;-29
2023/04/20 00:36:47;;;;;;;13.18;8.40;;;;;;;16.46;57.03;96144.47;5036486;28;20022;-29
2023/04/20 00:39:12;;;;;;;14.73;9.77;;;;;;;16.56;56.70;96136.94;5043839;28;20099;-29
2023/04/20 00:41:38;;;;;;;14.43;9.02;;;;;;;16.77;55.87;96132.31;5036201;28;20400;-29
2023/04/20 00:44:06;;;;;;;13.07;8.15;;;;;;;16.71;56.11;96132.22;5052038;28;20489;-29
2023/04/20 00:46:32;;;;;;;12.48;8.02;;;;;;;16.46;56.46;96135.50;5041700;28;20108;-29
2023/04/20 00:48:58;;;;;;;12.15;8.10;;;;;;;16.67;56.21;96136.38;5037592;28;20061;-29
2023/04/20 00:51:24;;;;;;;12.18;8.35;;;;;;;16.61;56.08;96132.75;5035572;28;20032;-30
2023/04/20 00:53:50;;;;;;;12.48;7.95;;;;;;;16.54;56.51;96125.69;5036061;28;20021;-29
2023/04/20 00:56:16;;;;;;;10.13;6.90;;;;;;;16.62;56.23;96117.84;5038142;28;20079;-30
2023/04/20 00:58:42;;;;;;;10.70;7.55;;;;;;;16.68;56.34;96130.44;5040839;28;20033;-31
2023/04/20 01:01:09;;;;;;;11.55;7.78;;;;;;;16.71;56.50;96124.00;5042801;28;20045;-29
2023/04/20 01:03:35;;;;;;;12.02;8.13;;;;;;;16.68;56.67;96113.25;5036932;28;20041;-29
2023/04/20 01:06:01;;;;;;;12.65;8.68;;;;;;;16.53;57.31;96111.25;5035071;28;20025;-29
2023/04/20 01:08:27;;;;;;;13.40;9.13;;;;;;;16.55;57.36;96113.50;5035622;28;20527;-29
2023/04/20 01:10:55;;;;;;;16.30;9.27;;;;;;;16.54;57.29;96109.25;5042730;28;20022;-29
2023/04/20 01:13:21;;;;;;;14.85;9.20;;;;;;;16.48;57.44;96109.16;5042876;28;20049;-29
2023/04/20 01:15:46;;;;;;;16.83;9.60;;;;;;;16.51;57.52;96100.00;5035747;28;20093;-29
2023/04/20 01:18:12;;;;;;;13.85;8.82;;;;;;;16.48;57.55;96097.47;5035354;28;20029;-30
2023/04/20 01:20:38;;;;;;;15.10;9.35;;;;;;;16.45;57.47;96095.66;5042982;28;20026;-29
2023/04/20 01:23:03;;;;;;;16.77;9.57;;;;;;;16.51;57.14;96094.53;5035279;28;20059;-29
2023/04/20 01:25:29;;;;;;;16.02;9.65;;;;;;;16.46;57.40;96094.44;5035418;28;20025;-29
2023/04/20 01:27:54;;;;;;;14.30;9.13;;;;;;;16.70;56.54;96092.34;5027848;28;20032;-29
2023/04/20 01:30:19;;;;;;;13.48;8.75;;;;;;;16.73;56.36;96098.88;5042286;28;20021;-29
2023/04/20 01:32:45;;;;;;;14.55;9.52;;;;;;;16.69;56.34;96096.31;5034987;28;20029;-29
2023/04/20 01:35:11;;;;;;;15.07;8.93;;;;;;;16.76;56.20;96106.16;5035323;28;20567;-29
2023/04/20 01:37:37;;;;;;;13.77;8.68;;;;;;;16.34;56.97;96098.22;5034907;28;20028;-29
2023/04/20 01:40:05;;;;;;;13.77;8.43;;;;;;;16.45;56.74;96103.88;5034321;28;20017;-29
2023/04/20 01:42:31;;;;;;;15.25;9.38;;;;;;;16.45;56.68;96101.13;5040979;28;20538;-29
2023/04/20 01:44:56;;;;;;;14.68;8.95;;;;;;;16.49;56.30;96098.97;5042745;28;20064;-30
2023/04/20 01:47:21;;;;;;;13.90;9.10;;;;;;;16.61;56.16;96095.19;5034857;28;20071;-29
2023/04/20 01:49:47;;;;;;;14.35;9.27;;;;;;;16.50;56.25;96103.22;5034503;28;20469;-29
2023/04/20 01:52:12;;;;;;;16.00;8.93;;;;;;;16.49;56.26;96098.97;5044207;28;20038;-30
2023/04/20 01:54:38;;;;;;;14.80;9.20;;;;;;;16.50;56.26;96095.75;5039562;28;20025;-29
2023/04/20 01:57:03;;;;;;;15.18;9.05;;;;;;;16.31;56.63;96099.19;5041878;28;20021;-29
2023/04/20 01:59:28;;;;;;;14.55;9.55;;;;;;;16.31;56.78;96093.69;5030119;28;20036;-29
2023/04/20 02:01:54;;;;;;;16.02;8.40;;;;;;;16.23;56.81;96093.31;5040937;28;20380;-30
2023/04/20 02:04:20;;;;;;;14.10;9.18;;;;;;;16.34;56.60;96092.75;5035222;28;20137;-29
2023/04/20 02:06:45;;;;;;;13.10;8.98;;;;;;;16.27;56.67;96087.66;5034651;28;20025;-29
2023/04/20 02:09:11;;;;;;;14.82;9.50;;;;;;;16.31;56.39;96072.56;5040365;28;20020;-29
2023/04/20 02:11:36;;;;;;;15.23;9.95;;;;;;;16.39;56.16;96083.88;5034600;28;20041;-33
2023/04/20 02:14:02;;;;;;;13.10;8.73;;;;;;;16.50;55.80;96079.34;5034638;28;20112;-29
2023/04/20 02:16:29;;;;;;;14.50;9.20;;;;;;;16.51;55.75;96080.09;5033812;28;20021;-29
2023/04/20 02:18:55;;;;;;;15.93;8.68;;;;;;;16.54;55.75;96073.69;5034140;28;20021;-29
2023/04/20 02:21:21;;;;;;;14.35;9.27;;;;;;;16.40;56.12;96077.19;5041569;28;20029;-31
2023/04/20 02:23:46;;;;;;;16.60;9.55;;;;;;;16.33;56.21;96080.28;5041310;28;20017;-30
2023/04/20 02:26:11;;;;;;;14.85;9.35;;;;;;;16.42;55.92;96077.47;5041204;28;20013;-31
2023/04/20 02:28:37;;;;;;;16.45;10.15;;;;;;;16.45;55.64;96074.50;5034247;28;20025;-30
2023/04/20 02:31:02;;;;;;;14.07;9.27;;;;;;;16.53;55.50;96069.44;5034011;28;20021;-28
2023/04/20 02:33:28;;;;;;;15.60;10.13;;;;;;;16.45;55.42;96076.50;5034081;28;20022;-31
2023/04/20 02:35:53;;;;;;;13.82;9.45;;;;;;;16.34;55.98;96070.84;5041262;28;20025;-29
2023/04/20 02:38:18;;;;;;;16.77;10.50;;;;;;;16.31;55.66;96069.06;5033874;28;20026;-29
2023/04/20 02:40:44;;;;;;;13.52;9.02;;;;;;;16.39;55.63;96070.19;5034310;28;20022;-29
2023/04/20 02:43:09;;;;;;;14.80;10.27;;;;;;;16.41;55.29;96067.75;5034000;28;20013;-29
2023/04/20 02:45:35;;;;;;;14.10;9.63;;;;;;;16.32;55.46;96067.84;5033723;28;20029;-29
2023/04/20 02:48:01;;;;;;;14.02;9.20;;;;;;;16.39;55.38;96056.50;5035323;28;20373;-29
2023/04/20 02:50:26;;;;;;;13.43;9.07;;;;;;;16.35;55.80;96056.69;5039622;28;20417;-29
2023/04/20 02:52:52;;;;;;;12.10;8.32;;;;;;;16.37;55.59;96064.44;5040613;28;20108;-29
2023/04/20 02:55:17;;;;;;;11.95;8.15;;;;;;;16.27;56.11;96060.28;5041038;28;20107;-29
2023/04/20 02:57:43;;;;;;;12.18;8.18;;;;;;;16.22;56.07;96064.44;5033510;28;20029;-29
2023/04/20 03:00:12;;;;;;;11.80;8.40;;;;;;;16.34;55.44;96071.59;5033816;28;20104;-29
2023/04/20 03:02:37;;;;;;;15.95;8.40;;;;;;;16.15;55.59;96062.84;5034282;28;20461;-31
2023/04/20 03:05:03;;;;;;;14.27;8.63;;;;;;;16.24;55.20;96061.97;5040423;28;20086;-29
2023/04/20 03:07:30;;;;;;;12.73;8.70;;;;;;;16.35;54.85;96077.84;5034296;28;20373;-29
2023/04/20 03:09:55;;;;;;;12.93;8.40;;;;;;;16.35;54.94;96066.88;5033694;28;20529;-31
2023/04/20 03:12:21;;;;;;;12.13;8.45;;;;;;;16.21;55.44;96067.63;5033726;28;20046;-29
2023/04/20 03:14:47;;;;;;;11.90;8.20;;;;;;;16.31;55.14;96067.09;5033663;28;20022;-29
2023/04/20 03:17:13;;;;;;;13.85;8.48;;;;;;;16.25;55.36;96076.41;5033534;28;20029;-29
2023/04/20 03:19:38;;;;;;;12.75;8.90;;;;;;;16.11;56.08;96067.75;5042885;28;20026;-29
2023/04/20 03:22:04;;;;;;;14.63;9.07;;;;;;;16.12;55.70;96077.47;5046452;28;20022;-30
2023/04/20 03:24:29;;;;;;;16.50;9.95;;;;;;;16.40;55.12;96074.44;5032526;28;20059;-29
2023/04/20 03:26:55;;;;;;;14.13;8.73;;;;;;;16.20;55.77;96077.06;5033380;28;20110;-29
2023/04/20 03:29:20;;;;;;;13.80;9.27;;;;;;;16.16;55.98;96075.28;5043039;28;20056;-29
2023/04/20 03:31:46;;;;;;;16.23;8.85;;;;;;;16.27;55.64;96065.75;5044959;28;20029;-29
2023/04/20 03:34:11;;;;;;;13.05;8.25;;;;;;;16.25;55.61;96063.50;5037379;28;20354;-29
2023/04/20 03:36:36;;;;;;;13.45;8.90;;;;;;;16.26;55.40;96064.25;5037361;28;20036;-30
2023/04/20 03:39:03;;;;;;;13.63;8.75;;;;;;;16.26;55.39;96067.00;5045260;28;20056;-29
2023/04/20 03:41:30;;;;;;;13.77;8.80;;;;;;;15.98;56.12;96072.72;5043129;28;20024;-30
2023/04/20 03:43:55;;;;;;;15.70;9.20;;;;;;;16.09;55.89;96072.91;5046902;28;20024;-29
2023/04/20 03:46:20;;;;;;;13.00;8.45;;;;;;;16.08;55.75;96076.88;5042167;28;20083;-29
2023/04/20 03:48:46;;;;;;;16.55;8.82;;;;;;;16.16;55.77;96078.03;5036897;28;20025;-29
2023/04/20 03:51:11;;;;;;;13.20;8.43;;;;;;;16.11;55.75;96069.72;5037564;28;20033;-29
2023/04/20 03:53:37;;;;;;;14.10;8.60;;;;;;;16.15;55.86;96071.06;5037136;28;20477;-29
2023/04/20 03:56:02;;;;;;;12.93;8.15;;;;;;;16.05;56.02;96072.38;5044063;28;20108;-30
2023/04/20 03:58:28;;;;;;;12.50;8.60;;;;;;;16.10;55.82;96074.44;5044265;28;20021;-30
2023/04/20 04:01:03;;;;;;;11.95;8.07;;;;;;;16.24;55.43;96077.66;5036943;28;20530;-30
2023/04/20 04:03:28;;;;;;;15.75;8.57;;;;;;;16.24;55.26;96083.13;5037113;28;20075;-30
2023/04/20 04:05:54;;;;;;;13.05;8.05;;;;;;;16.41;54.81;96076.72;5036740;28;20045;-30
2023/04/20 04:08:19;;;;;;;14.00;8.75;;;;;;;16.33;54.95;96077.53;5037083;28;20079;-28
2023/04/20 04:10:45;;;;;;;14.60;8.50;;;;;;;16.27;55.22;96073.97;5041080;28;20017;-28
2023/04/20 04:13:10;;;;;;;12.98;9.05;;;;;;;16.21;55.19;96073.88;5038919;28;20029;-29
2023/04/20 04:15:36;;;;;;;13.40;9.00;;;;;;;16.10;55.57;96079.91;5037336;28;20024;-29
2023/04/20 04:18:01;;;;;;;13.43;9.10;;;;;;;16.20;55.42;96082.53;5036562;28;20026;-29
2023/04/20 04:20:26;;;;;;;13.02;8.15;;;;;;;15.99;56.02;96078.94;5042880;28;20392;-29
2023/04/20 04:22:52;;;;;;;11.02;7.55;;;;;;;16.12;55.73;96076.69;5036605;28;20009;-30
2023/04/20 04:25:17;;;;;;;10.23;7.22;;;;;;;16.27;55.33;96076.72;5043500;28;20029;-29
2023/04/20 04:27:45;;;;;;;12.38;8.10;;;;;;;16.22;55.42;96080.84;5043794;28;20025;-29
2023/04/20 04:30:11;;;;;;;9.70;7.13;;;;;;;16.34;55.30;96087.25;5036535;28;20523;-29
2023/04/20 04:32:36;;;;;;;11.38;7.05;;;;;;;16.23;55.52;96084.34;5036335;28;20037;-30
2023/04/20 04:35:02;;;;;;;10.63;7.38;;;;;;;16.26;55.51;96086.91;5036277;28;20017;-29
2023/04/20 04:37:27;;;;;;;11.63;7.03;;;;;;;16.21;55.58;96084.06;5042738;28;20385;-29
2023/04/20 04:39:53;;;;;;;12.32;7.35;;;;;;;16.14;56.14;96085.19;5044516;28;20347;-29
2023/04/20 04:42:18;;;;;;;9.77;6.80;;;;;;;16.15;55.94;96090.19;5042155;28;20022;-29
2023/04/20 04:44:44;;;;;;;8.75;7.18;;;;;;;16.33;55.48;96096.69;5042365;28;20025;-29
2023/04/20 04:47:10;;;;;;;10.98;6.97;;;;;;;16.03;56.25;96096.69;5041092;28;20024;-29
2023/04/20 04:49:36;;;;;;;8.68;6.65;;;;;;;16.13;55.71;96103.59;5034485;28;20022;-29
2023/04/20 04:52:01;;;;;;;11.30;7.15;;;;;;;16.20;55.62;96099.72;5036420;28;20052;-29
2023/04/20 04:54:27;;;;;;;9.98;7.60;;;;;;;16.16;55.38;96101.91;5038759;28;20022;-30
2023/04/20 04:56:52;;;;;;;10.05;7.10;;;;;;;16.10;55.46;96115.47;5035844;28;20021;-28
2023/04/20 04:59:18;;;;;;;10.93;7.57;;;;;;;16.07;55.57;96116.41;5036281;28;20397;-29
2023/04/20 05:01:43;;;;;;;11.98;7.47;;;;;;;16.32;54.77;96106.16;5041141;28;20020;-29
2023/04/20 05:04:08;;;;;;;11.52;7.72;;;;;;;16.05;55.37;96116.13;5038193;28;20046;-30
2023/04/20 05:06:34;;;;;;;12.18;7.68;;;;;;;16.14;55.16;96113.31;5039123;28;20028;-29
2023/04/20 05:08:59;;;;;;;11.07;7.60;;;;;;;15.96;55.37;96108.00;5038442;28;20096;-29
2023/04/20 05:11:25;;;;;;;11.63;8.63;;;;;;;15.82;55.83;96113.47;5034303;28;20466;-29
2023/04/20 05:13:50;;;;;;;12.45;8.23;;;;;;;16.22;55.09;96112.94;5035392;28;20354;-30
2023/04/20 05:16:16;;;;;;;14.20;8.52;;;;;;;16.23;54.64;96123.41;5035361;28;20027;-28
2023/04/20 05:18:41;;;;;;;17.60;9.10;;;;;;;16.15;55.09;96117.56;5035731;28;20031;-29
2023/04/20 05:21:07;;;;;;;14.80;8.82;;;;;;;15.87;55.90;96121.75;5035311;28;20020;-29
2023/04/20 05:23:32;;;;;;;16.65;10.20;;;;;;;15.90;56.09;96120.06;5042662;28;20013;-29
2023/04/20 05:25:58;;;;;;;14.32;8.88;;;;;;;16.00;55.68;96122.25;5035120;28;20049;-29
2023/04/20 05:28:23;;;;;;;16.10;8.75;;;;;;;15.89;56.15;96119.31;5035315;28;20040;-29
2023/04/20 05:30:48;;;;;;;18.77;10.32;;;;;;;15.77;55.88;96125.78;5035569;28;20418;-29
2023/04/20 05:33:14;;;;;;;16.77;10.13;;;;;;;16.10;55.23;96120.94;5039971;28;20021;-29
2023/04/20 05:35:39;;;;;;;17.02;10.77;;;;;;;16.06;55.48;96120.38;5037338;28;20474;-29
2023/04/20 05:38:05;;;;;;;18.70;10.93;;;;;;;16.15;55.27;96117.56;5041420;28;20099;-29
2023/04/20 05:40:33;;;;;;;17.80;10.85;;;;;;;16.03;55.67;96113.13;5038985;28;20021;-29
2023/04/20 05:42:59;;;;;;;19.42;11.27;;;;;;;15.96;55.80;96124.41;5036191;28;20090;-29
2023/04/20 05:45:25;;;;;;;19.23;10.50;;;;;;;16.16;55.46;96127.28;5040674;28;20397;-29
2023/04/20 05:47:52;;;;;;;18.80;10.45;;;;;;;16.09;55.69;96119.44;5042122;28;20025;-29
2023/04/20 05:50:18;;;;;;;16.42;10.02;;;;;;;16.09;55.55;96129.63;5034781;28;20575;-30
2023/04/20 05:52:43;;;;;;;15.25;9.43;;;;;;;15.97;56.19;96134.13;5034541;28;20112;-29
2023/04/20 05:55:09;;;;;;;14.15;8.70;;;;;;;15.92;56.47;96134.03;5034688;28;20048;-29
2023/04/20 05:57:41;;;;;;;15.43;10.02;;;;;;;16.05;56.13;96132.56;5034784;28;20373;-29
2023/04/20 06:00:27;;;;;;;16.83;10.52;;;;;;;16.06;56.12;96136.78;5041895;28;20108;-29
2023/04/20 06:02:53;;;;;;;17.15;10.27;;;;;;;15.94;56.63;96140.53;5048252;28;20025;-29
2023/04/20 06:05:19;;;;;;;17.08;10.15;;;;;;;16.15;56.15;96135.94;5035329;28;20389;-29
2023/04/20 06:07:45;;;;;;;15.73;9.50;;;;;;;16.00;56.67;96127.72;5033178;28;20454;-29
2023/04/20 06:10:11;;;;;;;17.25;10.02;;;;;;;16.09;56.32;96133.09;5034699;28;20009;-29
2023/04/20 06:12:36;;;;;;;15.25;9.80;;;;;;;16.09;56.50;96127.63;5031283;28;20025;-29
2023/04/20 06:15:05;;;;;;;18.40;10.43;;;;;;;16.03;56.85;96128.75;5039083;28;20111;-29
2023/04/20 06:17:30;;;;;;;14.85;9.50;;;;;;;16.14;56.59;96127.00;5041306;28;20051;-29
2023/04/20 06:19:56;;;;;;;13.85;9.13;;;;;;;16.32;56.10;96128.06;5038741;28;20028;-29
2023/04/20 06:22:21;;;;;;;13.68;9.25;;;;;;;16.34;55.97;96137.28;5037177;28;20076;-29
2023/04/20 06:24:47;;;;;;;15.90;10.40;;;;;;;16.19;56.80;96146.72;5043043;28;20022;-29
2023/04/20 06:27:12;;;;;;;14.55;9.80;;;;;;;16.17;56.93;96138.97;5045961;28;20053;-30
2023/04/20 06:29:38;;;;;;;14.50;9.18;;;;;;;16.25;56.80;96140.13;5041367;28;20029;-29
2023/04/20 06:32:04;;;;;;;14.68;9.40;;;;;;;16.19;57.03;96146.72;5034392;28;20026;-29
2023/04/20 06:34:29;;;;;;;13.60;9.05;;;;;;;16.41;56.03;96142.41;5033957;28;20025;-29
2023/04/20 06:36:55;;;;;;;11.98;8.40;;;;;;;16.19;56.60;96150.22;5034317;28;20018;-29
2023/04/20 06:39:21;;;;;;;12.27;8.25;;;;;;;16.26;56.48;96138.88;5033986;28;20044;-29
2023/04/20 06:41:46;;;;;;;11.07;8.13;;;;;;;16.35;55.92;96148.97;5034037;28;20436;-31
2023/04/20 06:44:11;;;;;;;10.63;7.22;;;;;;;16.26;56.43;96146.34;5047836;28;20021;-31
2023/04/20 06:46:37;;;;;;;11.52;7.97;;;;;;;16.41;55.79;96142.41;5040855;28;20025;-31
2023/04/20 06:49:02;;;;;;;12.98;8.02;;;;;;;16.38;56.03;96148.81;5034064;28;20378;-31
2023/04/20 06:51:30;;;;;;;11.38;7.20;;;;;;;16.08;56.96;96153.47;5033673;28;20029;-31
2023/04/20 06:53:55;;;;;;;9.40;6.72;;;;;;;16.29;56.45;96150.88;5032304;28;20449;-31
2023/04/20 06:56:22;;;;;;;9.48;6.40;;;;;;;16.46;56.01;96149.19;5040350;28;20060;-33
2023/04/20 06:58:47;;;;;;;10.57;7.05;;;;;;;16.42;55.95;96154.09;5040100;28;20024;-31
2023/04/20 07:01:13;;;;;;;9.90;6.75;;;;;;;16.26;56.44;96160.78;5035953;28;20105;-31
2023/04/20 07:03:38;;;;;;;10.85;7.00;;;;;;;16.32;56.56;96163.63;5039393;28;20032;-32
2023/04/20 07:06:05;;;;;;;10.48;7.00;;;;;;;16.38;56.09;96165.22;5033241;28;20514;-31
2023/04/20 07:08:31;;;;;;;10.20;7.25;;;;;;;16.13;56.47;96158.31;5043106;28;20017;-29
2023/04/20 07:10:57;;;;;;;9.43;6.53;;;;;;;16.32;56.04;96158.16;5038141;28;20028;-29
2023/04/20 07:13:22;;;;;;;9.82;6.35;;;;;;;16.56;55.30;96164.31;5040688;28;20509;-29
2023/04/20 07:15:48;;;;;;;11.25;6.75;;;;;;;16.29;56.78;96159.09;5033413;28;20026;-29
2023/04/20 07:18:13;;;;;;;10.90;6.85;;;;;;;16.11;57.05;96158.00;5033545;28;20025;-29
2023/04/20 07:20:39;;;;;;;10.20;6.35;;;;;;;16.58;55.62;96150.13;5040904;28;20082;-29
2023/04/20 07:23:04;;;;;;;10.85;7.47;;;;;;;16.52;55.83;96159.00;5040641;28;20101;-29
2023/04/20 07:25:32;;;;;;;9.00;6.25;;;;;;;16.46;55.94;96160.13;5033557;28;20071;-29
2023/04/20 07:27:58;;;;;;;10.27;6.63;;;;;;;16.34;56.53;96156.44;5033492;28;20024;-31
2023/04/20 07:30:23;;;;;;;8.88;6.15;;;;;;;16.52;56.02;96155.50;5033558;28;20116;-31
2023/04/20 07:32:48;;;;;;;9.48;6.45;;;;;;;16.40;55.82;96148.34;5033566;28;20235;-31
2023/04/20 07:35:15;;;;;;;8.45;5.88;;;;;;;16.58;55.80;96153.63;5037300;28;20487;-31
2023/04/20 07:37:40;;;;;;;9.80;6.43;;;;;;;16.59;55.50;96152.38;5033075;28;20025;-32
2023/04/20 07:40:07;;;;;;;8.50;6.30;;;;;;;16.49;55.47;96145.50;5040899;28;20436;-31
2023/04/20 07:42:36;;;;;;;9.13;6.63;;;;;;;16.30;56.18;96153.16;5033320;28;20052;-32
2023/04/20 07:45:03;;;;;;;9.05;6.50;;;;;;;16.53;55.75;96154.28;5040078;28;20036;-31
2023/04/20 07:47:28;;;;;;;8.50;6.25;;;;;;;16.62;55.20;96150.69;5033285;28;20021;-31
2023/04/20 07:49:54;;;;;;;10.43;6.85;;;;;;;16.51;55.39;96157.50;5039313;28;20370;-31
2023/04/20 07:52:19;;;;;;;10.50;6.22;;;;;;;16.36;55.63;96153.22;5040393;28;20021;-31
2023/04/20 07:54:45;;;;;;;8.35;6.03;;;;;;;16.55;55.21;96149.09;5033341;28;20032;-32
2023/04/20 07:57:10;;;;;;;8.98;6.10;;;;;;;16.62;55.46;96146.00;5033428;28;20461;-31
2023/04/20 07:59:36;;;;;;;8.95;5.95;;;;;;;16.64;55.92;96153.75;5033214;28;20503;-31
2023/04/20 08:02:02;;;;;;;9.05;5.97;;;;;;;16.58;55.88;96153.63;5032870;28;20438;-31
2023/04/20 08:04:28;;;;;;;9.90;5.97;;;;;;;16.24;56.14;96157.00;5042151;28;20045;-32
2023/04/20 08:06:53;;;;;;;8.15;5.28;;;;;;;16.41;55.86;96167.03;5037675;28;20025;-31
2023/04/20 08:09:19;;;;;;;9.32;5.50;;;;;;;16.32;56.03;96166.38;5032329;28;20078;-31
2023/04/20 08:11:46;;;;;;;6.45;5.25;;;;;;;16.56;55.08;96164.31;5032810;28;20029;-32
2023/04/20 08:14:12;;;;;;;6.70;4.95;;;;;;;16.55;55.01;96165.53;5031992;28;20454;-30
2023/04/20 08:16:37;;;;;;;7.45;5.55;;;;;;;16.68;54.97;96163.28;5035550;28;20032;-31
2023/04/20 08:19:08;;;;;;;8.00;5.60;;;;;;;16.65;54.86;96161.50;5043762;28;20026;-31
2023/04/20 08:21:35;;;;;;;5.95;4.97;;;;;;;16.52;55.02;96167.22;5042724;28;20059;-31
2023/04/20 08:24:01;;;;;;;6.10;4.72;;;;;;;16.84;53.94;96162.03;5036560;28;20026;-33
2023/04/20 08:26:26;;;;;;;6.22;4.30;;;;;;;16.59;54.43;96160.59;5043233;28;20025;-31
2023/04/20 08:28:52;;;;;;;6.25;4.57;;;;;;;16.79;54.27;96160.72;5043937;28;20418;-31
2023/04/20 08:31:17;;;;;;;6.00;4.40;;;;;;;16.76;53.90;96167.16;5042049;28;20025;-33
2023/04/20 08:33:43;;;;;;;5.88;4.68;;;;;;;16.82;54.08;96165.25;5037563;28;20079;-32
2023/04/20 08:36:08;;;;;;;6.20;4.40;;;;;;;16.83;53.90;96158.53;5036330;28;20029;-31
2023/04/20 08:38:33;;;;;;;5.47;4.07;;;;;;;17.12;53.24;96165.22;5035112;28;20025;-31
2023/04/20 08:40:59;;;;;;;6.65;5.80;;;;;;;17.09;53.42;96166.91;5036623;28;20024;-30
2023/04/20 08:43:24;;;;;;;5.85;5.20;;;;;;;17.03;53.36;96165.34;5040869;28;20104;-32
2023/04/20 08:45:53;;;;;;;5.78;4.53;;;;;;;17.01;53.42;96165.03;5045237;28;20025;-31
2023/04/20 08:48:20;;;;;;;7.47;5.00;;;;;;;16.93;53.31;96164.69;5043313;28;20076;-30
2023/04/20 08:50:46;;;;;;;6.03;4.38;;;;;;;16.96;53.37;96162.97;5036122;28;20028;-30
2023/04/20 08:53:13;;;;;;;4.65;3.78;;;;;;;17.12;53.20;96157.75;5035998;28;20487;-32
2023/04/20 08:55:38;;;;;;;4.88;3.55;;;;;;;16.88;53.76;96155.16;5035892;28;20036;-31
2023/04/20 08:58:03;;;;;;;4.05;3.40;;;;;;;17.05;53.30;96155.41;5036067;28;20104;-33
2023/04/20 09:00:29;;;;;;;4.35;3.42;;;;;;;17.15;53.02;96159.53;5039019;28;20021;-30
2023/04/20 09:02:55;;;;;;;3.63;3.13;;;;;;;17.14;52.85;96149.06;5046905;28;20420;-30
2023/04/20 09:05:28;;;;;;;5.35;3.38;;;;;;;17.19;52.71;96140.16;5035889;28;20098;-30
2023/04/20 09:07:56;;;;;;;6.22;3.97;;;;;;;17.24;52.74;96153.19;5035652;28;20033;-30
2023/04/20 09:10:25;;;;;;;6.40;3.50;;;;;;;17.11;53.38;96156.25;5035919;28;20022;-30
2023/04/20 09:12:51;;;;;;;4.68;3.10;;;;;;;17.24;52.82;96148.47;5035604;28;20050;-32
2023/04/20 09:15:30;;;;;;;4.78;3.30;;;;;;;17.25;52.78;96146.47;5042574;28;20029;-31
2023/04/20 09:17:56;;;;;;;7.30;5.45;;;;;;;17.39;52.53;96145.69;5029556;28;20036;-33
2023/04/20 09:20:32;;;;;;;6.30;4.28;;;;;;;17.33;52.58;96158.53;5042885;28;20059;-36
2023/04/20 09:23:13;;;;;;;5.70;4.03;;;;;;;17.50;52.09;96156.78;5029192;28;20020;-31
2023/04/20 09:25:39;;;;;;;4.40;3.47;;;;;;;17.45;52.00;96148.47;5042484;28;20078;-30
2023/04/20 09:28:06;;;;;;;6.97;4.45;;;;;;;17.44;52.11;96150.47;5042167;28;20017;-31
2023/04/20 09:30:39;;;;;;;5.13;3.72;;;;;;;17.46;51.72;96147.25;5035257;28;20381;-30
2023/04/20 09:33:05;;;;;;;;;;;;;;;17.32;51.71;96140.59;5029059;28;20078;-30
2023/04/20 09:35:31;;;;;;;3.00;2.60;;;;;;;17.43;50.97;96150.97;5033853;28;20361;-30
2023/04/20 09:37:56;;;;;;;2.78;2.42;;;;;;;17.34;50.71;96149.09;5035396;28;20032;-30
2023/04/20 09:40:25;;;;;;;4.63;2.80;;;;;;;17.52;50.33;96137.88;5040074;28;20021;-30
2023/04/20 09:42:53;;;;;;;4.75;2.83;;;;;;;17.45;51.08;96135.53;5037054;28;20116;-30
2023/04/20 09:45:19;;;;;;;3.72;2.53;;;;;;;17.45;51.21;96143.75;5034818;28;20029;-31
2023/04/20 09:47:46;;;;;;;3.58;2.53;;;;;;;17.41;51.13;96137.75;5034473;28;20032;-31
2023/04/20 09:50:12;;;;;;;3.88;2.42;;;;;;;17.32;51.15;96137.84;5037355;28;20057;-30
2023/04/20 09:52:38;;;;;;;4.55;2.75;;;;;;;17.44;51.11;96141.47;5039496;28;20099;-31
2023/04/20 09:55:06;;;;;;;3.83;2.50;;;;;;;17.34;51.28;96132.63;5042367;28;20489;-31
2023/04/20 09:57:31;;;;;;;2.80;2.25;;;;;;;17.38;51.60;96124.97;5034487;28;20100;-30
2023/04/20 09:59:58;;;;;;;3.35;2.35;;;;;;;17.60;50.89;96122.50;5034579;28;20053;-31
2023/04/20 10:02:24;;;;;;;4.78;2.53;;;;;;;17.51;51.52;96130.88;5051624;28;20033;-30
2023/04/20 10:04:54;;;;;;;8.85;6.78;;;;;;;17.57;51.40;96133.69;5037942;28;20060;-30
2023/04/20 10:07:27;;;;;;;6.28;4.57;;;;;;;17.41;51.35;96126.78;5042042;28;20377;-30
2023/04/20 10:10:14;;;;;;;4.40;3.80;;;;;;;17.54;50.79;96121.72;5038327;28;20017;-30
2023/04/20 10:12:51;;;;;;;5.05;3.72;;;;;;;17.62;50.17;96124.03;5027212;28;20029;-31
2023/04/20 10:15:17;;;;;;;3.13;2.70;;;;;;;17.57;50.01;96126.22;5034528;28;20075;-30
2023/04/20 10:17:43;;;;;;;2.95;2.47;;;;;;;17.52;50.04;96112.44;5041193;28;20026;-30
2023/04/20 10:20:25;;;;;;;3.55;2.47;;;;;;;17.60;50.13;96114.28;5034069;28;20021;-30
2023/04/20 10:22:51;;;;;;;3.13;2.35;;;;;;;17.52;50.29;96110.47;5022664;28;20018;-30
2023/04/20 10:25:23;;;;;;;3.22;2.25;;;;;;;17.53;50.06;96117.47;5036766;28;20088;-30
2023/04/20 10:28:00;;;;;;;3.72;2.42;;;;;;;17.65;49.91;96112.88;5034634;28;20369;-31
2023/04/20 10:30:27;;;;;;;2.65;1.88;;;;;;;17.56;50.11;96111.00;5034449;28;20017;-30
2023/04/20 10:33:08;;;;;;;2.83;2.00;;;;;;;17.50;49.70;96115.66;5036560;28;20496;-30
2023/04/20 10:36:00;;;;;;;3.28;2.22;;;;;;;17.54;49.99;96110.75;5037052;28;20371;-30
2023/04/20 10:38:29;;;;;;;2.70;2.13;;;;;;;17.65;49.82;96104.66;5029377;28;20404;-31
2023/04/20 10:40:54;;;;;;;3.25;2.00;;;;;;;17.69;49.60;96096.22;5034024;28;20032;-32
2023/04/20 10:43:29;;;;;;;2.60;2.40;;;;;;;17.65;49.78;96095.69;5038712;28;20017;-30
2023/04/20 10:45:54;;;;;;;4.32;2.53;;;;;;;17.54;49.90;96096.28;5035876;28;20025;-31
2023/04/20 10:48:20;;;;;;;2.85;2.00;;;;;;;17.65;49.85;96095.69;5040261;28;20052;-30
2023/04/20 10:50:46;;;;;;;3.15;2.20;;;;;;;17.70;49.63;96090.25;5040866;28;20091;-30
2023/04/20 10:53:22;;;;;;;2.92;2.20;;;;;;;17.78;49.20;96085.13;5033735;28;20017;-31
2023/04/20 10:55:57;;;;;;;2.97;1.90;;;;;;;17.65;49.40;96090.19;5034072;28;20025;-30
2023/04/20 10:58:23;;;;;;;2.95;2.30;;;;;;;17.79;49.58;96079.16;5039261;28;20025;-30
2023/04/20 11:01:04;;;;;;;2.28;1.90;;;;;;;17.70;49.63;96086.75;5040921;28;20025;-30
2023/04/20 11:03:32;;;;;;;2.65;1.95;;;;;;;17.60;50.19;96072.41;5040940;28;20020;-31
2023/04/20 11:06:00;;;;;;;2.13;1.88;;;;;;;17.69;49.98;96063.31;5033810;28;20036;-31
2023/04/20 11:08:42;;;;;;;3.38;1.67;;;;;;;17.63;50.10;96076.19;5033684;28;20029;-30
2023/04/20 11:11:26;;;;;;;1.70;1.40;;;;;;;17.89;49.66;96066.03;5033535;28;20021;-31
2023/04/20 11:14:03;;;;;;;2.22;1.80;;;;;;;17.67;50.15;96066.56;5028050;28;20028;-30
2023/04/20 11:16:29;;;;;;;1.95;1.65;;;;;;;17.82;49.75;96063.69;5040663;28;20025;-28
2023/04/20 11:18:55;;;;;;;1.85;1.50;;;;;;;17.75;49.99;96062.13;5037500;28;20025;-29
2023/04/20 11:21:21;;;;;;;1.92;1.45;;;;;;;17.78;50.25;96060.44;5041838;28;20017;-28
2023/04/20 11:23:47;;;;;;;2.63;1.60;;;;;;;17.74;50.23;96049.66;5034002;28;20036;-29